createdAt,value
2018-06-01T00:02:20.753Z,23.00
2018-06-01T00:04:48.248Z,23.10
2018-06-01T00:07:16.625Z,23.00
2018-06-01T00:09:44.392Z,23.00
2018-06-01T00:12:13.384Z,23.00
2018-06-01T00:14:42.345Z,22.90
2018-06-01T00:17:10.133Z,22.90
2018-06-01T00:19:39.100Z,22.90
2018-06-01T00:22:06.894Z,22.80
2018-06-01T00:24:35.178Z,22.80
2018-06-01T00:27:02.645Z,22.80
2018-06-01T00:29:30.109Z,22.70
2018-06-01T00:31:57.576Z,22.60
2018-06-01T00:34:25.097Z,22.50
2018-06-01T00:36:54.089Z,22.40
2018-06-01T00:39:21.555Z,22.30
2018-06-01T00:41:50.846Z,22.30
2018-06-01T00:44:18.473Z,22.30
2018-06-01T00:46:45.931Z,22.20
2018-06-01T00:49:13.530Z,22.20
2018-06-01T00:51:41.189Z,22.10
2018-06-01T00:54:08.659Z,22.00
2018-06-01T00:56:36.118Z,22.00
2018-06-01T00:59:03.598Z,21.90
2018-06-01T01:01:31.045Z,21.80
2018-06-01T01:03:58.521Z,21.80
2018-06-01T01:06:25.974Z,21.70
2018-06-01T01:08:53.433Z,21.60
2018-06-01T01:11:20.893Z,21.60
2018-06-01T01:13:48.358Z,21.60
2018-06-01T01:16:15.849Z,21.50
2018-06-01T01:18:43.617Z,21.50
2018-06-01T01:21:11.193Z,21.60
2018-06-01T01:23:39.405Z,21.50
2018-06-01T01:26:06.879Z,21.50
2018-06-01T01:28:34.537Z,21.50
2018-06-01T01:31:02.140Z,21.50
2018-06-01T01:33:29.788Z,21.50
2018-06-01T01:35:58.273Z,21.50
2018-06-01T01:38:26.037Z,21.50
2018-06-01T01:40:59.303Z,21.60
2018-06-01T01:43:26.762Z,21.50
2018-06-01T01:45:54.566Z,21.60
2018-06-01T01:48:22.029Z,21.60
2018-06-01T01:50:49.768Z,21.60
2018-06-01T01:53:17.529Z,21.70
2018-06-01T01:55:45.174Z,21.70
2018-06-01T01:58:12.760Z,21.70
2018-06-01T02:00:40.236Z,21.80
2018-06-01T02:03:07.902Z,21.80
2018-06-01T02:05:35.370Z,21.80
2018-06-01T02:08:02.838Z,21.70
2018-06-01T02:10:30.346Z,21.70
2018-06-01T02:12:57.985Z,21.70
2018-06-01T02:15:25.444Z,21.70
2018-06-01T02:17:52.913Z,21.70
2018-06-01T02:20:20.505Z,21.70
2018-06-01T02:22:48.721Z,21.70
2018-06-01T02:25:16.270Z,21.70
2018-06-01T02:27:43.734Z,21.70
2018-06-01T02:30:11.194Z,21.70
2018-06-01T02:32:38.661Z,21.80
2018-06-01T02:35:06.325Z,21.70
2018-06-01T02:37:33.901Z,21.70
2018-06-01T02:40:01.350Z,21.70
2018-06-01T02:42:29.007Z,21.80
2018-06-01T02:44:56.573Z,21.80
2018-06-01T02:47:24.239Z,21.70
2018-06-01T02:49:51.809Z,21.60
2018-06-01T02:52:19.570Z,21.60
2018-06-01T02:54:47.025Z,21.50
2018-06-01T02:57:14.664Z,21.50
2018-06-01T02:59:42.134Z,21.40
2018-06-01T03:02:09.702Z,21.50
2018-06-01T03:04:37.357Z,21.50
2018-06-01T03:07:12.298Z,21.50
2018-06-01T03:09:39.762Z,21.50
2018-06-01T03:12:07.277Z,21.50
2018-06-01T03:14:34.913Z,21.60
2018-06-01T03:17:02.429Z,21.60
2018-06-01T03:19:29.893Z,21.50
2018-06-01T03:21:57.345Z,21.50
2018-06-01T03:24:24.818Z,21.50
2018-06-01T03:26:52.566Z,21.40
2018-06-01T03:29:20.023Z,21.40
2018-06-01T03:31:47.785Z,21.50
2018-06-01T03:34:15.233Z,21.50
2018-06-01T03:36:42.702Z,21.40
2018-06-01T03:39:10.165Z,21.40
2018-06-01T03:41:37.818Z,21.40
2018-06-01T03:44:05.377Z,21.30
2018-06-01T03:46:33.138Z,21.30
2018-06-01T03:49:00.909Z,21.30
2018-06-01T03:51:28.476Z,21.20
2018-06-01T03:53:56.127Z,21.20
2018-06-01T03:56:23.785Z,21.20
2018-06-01T03:58:51.233Z,21.20
2018-06-01T04:01:18.800Z,21.20
2018-06-01T04:03:46.625Z,21.20
2018-06-01T04:06:14.099Z,21.20
2018-06-01T04:08:41.697Z,21.10
2018-06-01T04:11:09.146Z,21.10
2018-06-01T04:13:36.640Z,21.10
2018-06-01T04:16:04.095Z,21.10
2018-06-01T04:18:31.555Z,21.10
2018-06-01T04:20:59.082Z,21.00
2018-06-01T04:23:26.845Z,21.00
2018-06-01T04:25:54.598Z,21.00
2018-06-01T04:28:22.254Z,20.90
2018-06-01T04:30:49.717Z,20.80
2018-06-01T04:33:17.197Z,20.80
2018-06-01T04:35:44.737Z,20.70
2018-06-01T04:38:12.390Z,20.70
2018-06-01T04:40:39.930Z,20.70
2018-06-01T04:43:07.417Z,20.70
2018-06-01T04:45:34.985Z,20.60
2018-06-01T04:48:02.444Z,20.60
2018-06-01T04:50:29.902Z,20.60
2018-06-01T04:52:57.459Z,20.60
2018-06-01T04:55:24.905Z,20.60
2018-06-01T04:57:52.377Z,20.60
2018-06-01T05:00:19.838Z,20.60
2018-06-01T05:02:47.288Z,20.60
2018-06-01T05:05:14.766Z,20.60
2018-06-01T05:07:42.213Z,20.60
2018-06-01T05:10:09.694Z,20.60
2018-06-01T05:12:37.206Z,20.60
2018-06-01T05:15:04.738Z,20.60
2018-06-01T05:17:32.430Z,20.60
2018-06-01T05:20:00.072Z,20.60
2018-06-01T05:22:27.655Z,20.70
2018-06-01T05:24:55.415Z,20.60
2018-06-01T05:27:22.985Z,20.60
2018-06-01T05:29:50.634Z,20.60
2018-06-01T05:32:18.282Z,20.60
2018-06-01T05:34:45.746Z,20.60
2018-06-01T05:37:13.214Z,20.60
2018-06-01T05:39:40.718Z,20.60
2018-06-01T05:42:08.181Z,20.60
2018-06-01T05:44:35.691Z,20.60
2018-06-01T05:47:03.146Z,20.50
2018-06-01T05:49:30.778Z,20.60
2018-06-01T05:51:58.261Z,20.60
2018-06-01T05:54:25.757Z,20.60
2018-06-01T05:56:53.201Z,20.70
2018-06-01T05:59:20.658Z,20.70
2018-06-01T06:01:48.139Z,20.70
2018-06-01T06:04:15.650Z,20.80
2018-06-01T06:06:43.124Z,20.80
2018-06-01T06:09:10.578Z,20.80
2018-06-01T06:11:38.073Z,20.80
2018-06-01T06:14:05.530Z,20.80
2018-06-01T06:16:33.006Z,20.80
2018-06-01T06:19:00.593Z,20.90
2018-06-01T06:21:28.060Z,20.90
2018-06-01T06:23:55.519Z,20.90
2018-06-01T06:26:23.013Z,20.90
2018-06-01T06:28:50.478Z,20.90
2018-06-01T06:31:17.981Z,20.90
2018-06-01T06:33:45.441Z,21.00
2018-06-01T06:36:12.930Z,21.00
2018-06-01T06:38:40.383Z,21.00
2018-06-01T06:41:08.543Z,21.00
2018-06-01T06:43:36.811Z,21.00
2018-06-01T06:46:04.562Z,21.00
2018-06-01T06:48:33.539Z,21.10
2018-06-01T06:51:00.997Z,21.10
2018-06-01T06:53:28.786Z,21.10
2018-06-01T06:55:56.452Z,21.10
2018-06-01T06:58:24.011Z,21.00
2018-06-01T07:00:51.775Z,21.10
2018-06-01T07:03:19.538Z,21.10
2018-06-01T07:05:47.204Z,21.20
2018-06-01T07:08:14.674Z,21.20
2018-06-01T07:10:42.142Z,21.30
2018-06-01T07:13:09.649Z,21.30
2018-06-01T07:15:37.417Z,21.30
2018-06-01T07:18:06.405Z,21.40
2018-06-01T07:20:34.058Z,21.40
2018-06-01T07:23:01.571Z,21.50
2018-06-01T07:25:29.041Z,21.50
2018-06-01T07:27:56.497Z,21.50
2018-06-01T07:30:23.995Z,21.60
2018-06-01T07:32:51.461Z,21.70
2018-06-01T07:35:19.110Z,21.70
2018-06-01T07:37:46.726Z,21.70
2018-06-01T07:40:14.289Z,21.80
2018-06-01T07:42:42.232Z,21.80
2018-06-01T07:45:09.750Z,21.80
2018-06-01T07:47:37.254Z,21.90
2018-06-01T07:50:04.761Z,21.90
2018-06-01T07:52:32.337Z,22.00
2018-06-01T07:55:00.010Z,22.00
2018-06-01T07:57:27.467Z,21.90
2018-06-01T07:59:55.053Z,21.90
2018-06-01T08:02:22.788Z,21.90
2018-06-01T08:04:51.767Z,22.00
2018-06-01T08:07:19.410Z,21.90
2018-06-01T08:09:47.029Z,21.90
2018-06-01T08:12:14.528Z,21.90
2018-06-01T08:14:42.251Z,21.80
2018-06-01T08:17:09.853Z,21.80
2018-06-01T08:19:37.337Z,21.90
2018-06-01T08:22:04.822Z,21.90
2018-06-01T08:24:32.281Z,22.00
2018-06-01T08:26:59.762Z,22.00
2018-06-01T08:29:27.298Z,22.10
2018-06-01T08:31:54.878Z,22.30
2018-06-01T08:34:22.333Z,22.40
2018-06-01T08:36:49.823Z,22.40
2018-06-01T08:39:17.337Z,22.40
2018-06-01T08:41:44.917Z,22.40
2018-06-01T08:44:12.477Z,22.50
2018-06-01T08:46:40.064Z,22.50
2018-06-01T08:49:07.593Z,22.50
2018-06-01T08:51:35.410Z,22.60
2018-06-01T08:54:02.947Z,22.60
2018-06-01T08:56:30.473Z,22.60
2018-06-01T08:58:58.073Z,22.60
2018-06-01T09:01:25.462Z,22.70
2018-06-01T09:03:53.145Z,22.70
2018-06-01T09:06:20.610Z,22.80
2018-06-01T09:08:48.068Z,22.80
2018-06-01T09:11:15.899Z,22.90
2018-06-01T09:13:43.415Z,23.00
2018-06-01T09:16:10.882Z,23.00
2018-06-01T09:18:38.645Z,23.10
2018-06-01T09:21:06.245Z,23.00
2018-06-01T09:23:33.738Z,23.00
2018-06-01T09:26:02.277Z,23.00
2018-06-01T09:28:30.100Z,23.10
2018-06-01T09:30:57.659Z,23.10
2018-06-01T09:33:25.186Z,23.10
2018-06-01T09:35:52.689Z,23.10
2018-06-01T09:38:20.384Z,23.10
2018-06-01T09:40:48.173Z,23.00
2018-06-01T09:43:15.682Z,23.00
2018-06-01T09:45:43.306Z,22.90
2018-06-01T09:48:10.823Z,23.00
2018-06-01T09:50:38.711Z,23.00
2018-06-01T09:53:06.479Z,23.00
2018-06-01T09:55:34.043Z,23.00
2018-06-01T09:58:01.560Z,23.00
2018-06-01T10:00:35.398Z,23.20
2018-06-01T10:03:02.865Z,23.20
2018-06-01T10:05:30.342Z,23.30
2018-06-01T10:07:57.827Z,23.30
2018-06-01T10:10:30.885Z,23.30
2018-06-01T10:12:58.345Z,23.30
2018-06-01T10:15:25.956Z,23.30
2018-06-01T10:17:53.409Z,23.30
2018-06-01T10:20:20.896Z,23.40
2018-06-01T10:22:48.353Z,23.40
2018-06-01T10:25:15.822Z,23.50
2018-06-01T10:27:43.313Z,23.60
2018-06-01T10:30:10.958Z,23.70
2018-06-01T10:32:40.714Z,23.70
2018-06-01T10:35:08.455Z,23.70
2018-06-01T10:37:37.762Z,23.80
2018-06-01T10:40:05.392Z,23.80
2018-06-01T10:42:32.865Z,23.90
2018-06-01T10:45:00.352Z,23.90
2018-06-01T10:47:27.881Z,23.90
2018-06-01T10:49:56.883Z,23.80
2018-06-01T10:52:25.225Z,23.90
2018-06-01T10:54:52.706Z,23.90
2018-06-01T10:57:20.182Z,23.80
2018-06-01T10:59:47.806Z,23.80
2018-06-01T11:02:15.389Z,23.80
2018-06-01T11:04:42.965Z,23.80
2018-06-01T11:07:11.092Z,23.80
2018-06-01T11:09:38.617Z,23.80
2018-06-01T11:12:06.452Z,23.80
2018-06-01T11:14:34.856Z,23.80
2018-06-01T11:17:03.816Z,23.80
2018-06-01T11:19:31.429Z,23.80
2018-06-01T11:21:58.977Z,23.90
2018-06-01T11:24:26.477Z,24.00
2018-06-01T11:26:54.431Z,24.10
2018-06-01T11:29:21.956Z,24.10
2018-06-01T11:31:49.506Z,24.10
2018-06-01T11:34:17.029Z,24.20
2018-06-01T11:36:44.514Z,24.20
2018-06-01T11:39:12.781Z,24.30
2018-06-01T11:41:40.298Z,24.30
2018-06-01T11:44:08.602Z,24.40
2018-06-01T11:46:36.074Z,24.40
2018-06-01T11:49:03.532Z,24.40
2018-06-01T11:51:31.167Z,24.40
2018-06-01T11:53:58.651Z,24.40
2018-06-01T11:56:26.356Z,24.40
2018-06-01T11:58:53.914Z,24.50
2018-06-01T12:01:21.386Z,24.60
2018-06-01T12:03:48.856Z,24.70
2018-06-01T12:06:16.548Z,24.70
2018-06-01T12:08:44.053Z,24.70
2018-06-01T12:11:11.707Z,24.90
2018-06-01T12:13:39.230Z,24.90
2018-06-01T12:16:06.703Z,24.90
2018-06-01T12:18:34.208Z,24.90
2018-06-01T12:21:01.676Z,24.90
2018-06-01T12:23:29.165Z,25.00
2018-06-01T12:25:56.842Z,25.00
2018-06-01T12:28:24.357Z,25.00
2018-06-01T12:30:51.825Z,24.90
2018-06-01T12:33:20.799Z,24.90
2018-06-01T12:35:48.634Z,24.90
2018-06-01T12:38:16.265Z,24.90
2018-06-01T12:40:43.741Z,24.80
2018-06-01T12:43:11.279Z,24.80
2018-06-01T12:45:38.825Z,24.80
2018-06-01T12:48:06.343Z,24.70
2018-06-01T12:50:33.850Z,24.70
2018-06-01T12:53:01.343Z,24.70
2018-06-01T12:55:28.886Z,24.70
2018-06-01T12:57:56.666Z,24.80
2018-06-01T13:00:24.414Z,24.80
2018-06-01T13:02:52.036Z,24.90
2018-06-01T13:05:19.538Z,24.90
2018-06-01T13:07:47.037Z,25.00
2018-06-01T13:10:14.526Z,25.00
2018-06-01T13:12:42.066Z,25.10
2018-06-01T13:15:09.666Z,25.10
2018-06-01T13:17:37.197Z,25.10
2018-06-01T13:20:04.698Z,25.10
2018-06-01T13:22:32.165Z,25.10
2018-06-01T13:24:59.665Z,25.00
2018-06-01T13:27:27.179Z,25.00
2018-06-01T13:29:54.756Z,24.90
2018-06-01T13:32:22.299Z,24.90
2018-06-01T13:34:50.022Z,24.90
2018-06-01T13:37:17.484Z,24.90
2018-06-01T13:39:44.990Z,24.90
2018-06-01T13:42:12.507Z,24.80
2018-06-01T13:44:40.910Z,24.90
2018-06-01T13:47:08.382Z,24.80
2018-06-01T13:49:35.962Z,24.80
2018-06-01T13:52:03.497Z,24.80
2018-06-01T13:54:31.101Z,24.80
2018-06-01T13:56:58.613Z,24.70
2018-06-01T13:59:26.089Z,24.70
2018-06-01T14:01:53.725Z,24.70
2018-06-01T14:04:21.306Z,24.70
2018-06-01T14:06:48.794Z,24.70
2018-06-01T14:09:16.335Z,24.70
2018-06-01T14:11:43.911Z,24.70
2018-06-01T14:14:11.390Z,24.80
2018-06-01T14:16:38.950Z,25.40
2018-06-01T14:19:06.701Z,26.10
2018-06-01T14:21:34.964Z,25.70
2018-06-01T14:24:02.679Z,25.70
2018-06-01T14:26:30.297Z,25.50
2018-06-01T14:28:57.763Z,25.40
2018-06-01T14:31:25.505Z,25.50
2018-06-01T14:33:53.145Z,25.60
2018-06-01T14:36:20.636Z,25.70
2018-06-01T14:38:48.142Z,25.80
2018-06-01T14:41:15.669Z,26.20
2018-06-01T14:43:43.193Z,27.90
2018-06-01T14:46:10.707Z,29.40
2018-06-01T14:48:38.385Z,29.00
2018-06-01T14:51:05.909Z,28.30
2018-06-01T14:53:33.522Z,27.80
2018-06-01T14:56:00.986Z,27.30
2018-06-01T14:58:28.521Z,26.90
2018-06-01T15:00:56.232Z,26.70
2018-06-01T15:03:23.862Z,26.60
2018-06-01T15:05:51.443Z,26.40
2018-06-01T15:08:19.163Z,26.40
2018-06-01T15:10:46.717Z,26.40
2018-06-01T15:13:14.428Z,26.30
2018-06-01T15:15:43.610Z,26.30
2018-06-01T15:18:11.180Z,26.20
2018-06-01T15:20:40.157Z,26.20
2018-06-01T15:23:07.830Z,26.20
2018-06-01T15:25:35.388Z,26.20
2018-06-01T15:28:03.044Z,26.10
2018-06-01T15:30:30.525Z,26.00
2018-06-01T15:32:58.073Z,25.90
2018-06-01T15:35:26.340Z,25.90
2018-06-01T15:37:53.906Z,25.90
2018-06-01T15:40:22.877Z,26.30
2018-06-01T15:42:50.346Z,26.30
2018-06-01T15:45:17.801Z,26.50
2018-06-01T15:47:45.573Z,26.40
2018-06-01T15:50:14.554Z,26.10
2018-06-01T15:52:42.009Z,26.10
2018-06-01T15:55:09.486Z,26.10
2018-06-01T15:57:37.341Z,26.00
2018-06-01T16:00:05.010Z,26.20
2018-06-01T16:02:33.349Z,26.10
2018-06-01T16:05:00.849Z,26.10
2018-06-01T16:07:29.848Z,25.70
2018-06-01T16:09:58.222Z,25.70
2018-06-01T16:12:27.185Z,25.60
2018-06-01T16:14:54.665Z,25.50
2018-06-01T16:17:22.130Z,25.50
2018-06-01T16:19:49.581Z,25.40
2018-06-01T16:22:17.037Z,25.40
2018-06-01T16:24:44.506Z,25.40
2018-06-01T16:27:11.957Z,25.40
2018-06-01T16:29:39.413Z,25.40
2018-06-01T16:32:06.876Z,25.40
2018-06-01T16:34:34.378Z,25.50
2018-06-01T16:37:01.846Z,25.50
2018-06-01T16:39:29.300Z,25.40
2018-06-01T16:41:56.774Z,25.30
2018-06-01T16:44:24.246Z,25.30
2018-06-01T16:46:51.722Z,25.30
2018-06-01T16:49:19.180Z,25.20
2018-06-01T16:51:46.641Z,25.10
2018-06-01T16:54:14.158Z,25.10
2018-06-01T16:56:41.638Z,25.10
2018-06-01T16:59:09.093Z,25.10
2018-06-01T17:01:36.562Z,25.20
2018-06-01T17:04:04.022Z,25.20
2018-06-01T17:06:31.611Z,25.30
2018-06-01T17:08:59.061Z,25.30
2018-06-01T17:11:26.548Z,25.30
2018-06-01T17:13:54.107Z,25.40
2018-06-01T17:16:21.717Z,25.40
2018-06-01T17:18:50.678Z,25.20
2018-06-01T17:21:18.152Z,25.30
2018-06-01T17:23:45.612Z,25.10
2018-06-01T17:26:13.069Z,25.10
2018-06-01T17:28:41.439Z,25.10
2018-06-01T17:31:08.908Z,25.30
2018-06-01T17:33:36.365Z,25.70
2018-06-01T17:36:03.848Z,25.70
2018-06-01T17:38:31.322Z,25.50
2018-06-01T17:40:58.761Z,25.30
2018-06-01T17:43:26.225Z,25.10
2018-06-01T17:45:53.677Z,24.90
2018-06-01T17:48:21.138Z,24.70
2018-06-01T17:50:48.585Z,24.60
2018-06-01T17:53:16.058Z,24.70
2018-06-01T17:55:43.501Z,24.60
2018-06-01T17:58:10.972Z,24.50
2018-06-01T18:00:38.430Z,24.40
2018-06-01T18:03:05.890Z,24.30
2018-06-01T18:05:33.411Z,24.30
2018-06-01T18:08:01.085Z,24.20
2018-06-01T18:10:28.533Z,24.20
2018-06-01T18:12:56.009Z,24.30
2018-06-01T18:15:23.473Z,24.20
2018-06-01T18:17:50.938Z,24.10
2018-06-01T18:20:18.389Z,24.00
2018-06-01T18:22:45.855Z,23.90
2018-06-01T18:25:13.310Z,23.90
2018-06-01T18:27:40.761Z,23.90
2018-06-01T18:30:08.229Z,23.90
2018-06-01T18:32:35.689Z,23.90
2018-06-01T18:35:03.164Z,23.80
2018-06-01T18:37:30.619Z,23.80
2018-06-01T18:39:58.086Z,23.60
2018-06-01T18:42:25.537Z,23.50
2018-06-01T18:44:53.005Z,23.50
2018-06-01T18:47:20.457Z,23.50
2018-06-01T18:49:47.925Z,23.50
2018-06-01T18:52:15.378Z,23.40
2018-06-01T18:54:42.839Z,23.40
2018-06-01T18:57:10.293Z,23.30
2018-06-01T18:59:37.878Z,23.30
2018-06-01T19:02:05.542Z,23.30
2018-06-01T19:04:32.945Z,23.40
2018-06-01T19:07:00.425Z,23.40
2018-06-01T19:09:28.113Z,23.30
2018-06-01T19:11:55.577Z,23.30
2018-06-01T19:14:23.030Z,23.30
2018-06-01T19:16:50.506Z,23.30
2018-06-01T19:19:17.961Z,23.30
2018-06-01T19:21:45.429Z,23.30
2018-06-01T19:24:12.893Z,23.20
2018-06-01T19:26:40.378Z,23.20
2018-06-01T19:29:07.861Z,23.20
2018-06-01T19:31:35.331Z,23.10
2018-06-01T19:34:02.794Z,23.00
2018-06-01T19:36:31.042Z,23.00
2018-06-01T19:38:58.525Z,23.00
2018-06-01T19:41:25.980Z,23.00
2018-06-01T19:43:53.442Z,23.00
2018-06-01T19:46:20.936Z,23.00
2018-06-01T19:48:48.672Z,23.00
2018-06-01T19:51:16.325Z,23.00
2018-06-01T19:53:43.785Z,22.90
2018-06-01T19:56:11.245Z,22.90
2018-06-01T19:58:38.713Z,22.80
2018-06-01T20:01:06.174Z,22.80
2018-06-01T20:03:33.653Z,22.80
2018-06-01T20:06:01.110Z,22.70
2018-06-01T20:08:28.585Z,22.60
2018-06-01T20:10:56.057Z,22.60
2018-06-01T20:13:23.542Z,22.60
2018-06-01T20:15:50.970Z,22.60
2018-06-01T20:18:18.438Z,22.50
2018-06-01T20:20:45.939Z,22.40
2018-06-01T20:23:13.393Z,22.40
2018-06-01T20:25:40.850Z,22.30
2018-06-01T20:28:08.334Z,22.20
2018-06-01T20:30:35.818Z,22.20
2018-06-01T20:33:03.275Z,22.10
2018-06-01T20:35:30.745Z,22.10
2018-06-01T20:37:58.214Z,22.00
2018-06-01T20:40:26.445Z,21.90
2018-06-01T20:42:53.919Z,21.90
2018-06-01T20:45:21.392Z,22.00
2018-06-01T20:47:48.845Z,21.90
2018-06-01T20:50:16.339Z,21.80
2018-06-01T20:52:43.801Z,21.80
2018-06-01T20:55:11.261Z,21.70
2018-06-01T20:57:38.717Z,21.70
2018-06-01T21:00:06.195Z,21.70
2018-06-01T21:02:33.654Z,21.60
2018-06-01T21:05:01.110Z,21.60
2018-06-01T21:07:28.577Z,21.60
2018-06-01T21:09:56.096Z,21.60
2018-06-01T21:12:24.317Z,21.50
2018-06-01T21:14:51.786Z,21.50
2018-06-01T21:17:19.245Z,21.50
2018-06-01T21:19:46.713Z,21.50
2018-06-01T21:22:14.175Z,21.50
2018-06-01T21:24:41.685Z,21.50
2018-06-01T21:27:09.155Z,21.50
2018-06-01T21:29:36.605Z,21.40
2018-06-01T21:32:04.077Z,21.30
2018-06-01T21:34:31.541Z,21.20
2018-06-01T21:36:59.005Z,21.20
2018-06-01T21:39:26.589Z,21.20
2018-06-01T21:41:54.146Z,21.10
2018-06-01T21:44:21.778Z,21.10
2018-06-01T21:46:49.269Z,21.10
2018-06-01T21:49:16.834Z,21.20
2018-06-01T21:51:44.305Z,21.20
2018-06-01T21:54:11.762Z,21.20
2018-06-01T21:56:39.226Z,21.40
2018-06-01T21:59:06.678Z,21.40
2018-06-01T22:01:34.133Z,21.40
2018-06-01T22:04:01.598Z,21.30
2018-06-01T22:06:29.069Z,21.30
2018-06-01T22:08:56.541Z,21.20
2018-06-01T22:11:23.993Z,21.20
2018-06-01T22:13:51.450Z,21.20
2018-06-01T22:16:19.193Z,21.20
2018-06-01T22:18:46.596Z,21.20
2018-06-01T22:21:14.073Z,21.30
2018-06-01T22:23:42.303Z,21.10
2018-06-01T22:26:09.762Z,21.10
2018-06-01T22:28:37.229Z,21.00
2018-06-01T22:31:04.734Z,20.90
2018-06-01T22:33:32.205Z,20.90
2018-06-01T22:35:59.660Z,20.80
2018-06-01T22:38:27.140Z,20.70
2018-06-01T22:40:54.585Z,20.70
2018-06-01T22:43:22.065Z,20.70
2018-06-01T22:45:49.525Z,20.70
2018-06-01T22:48:16.997Z,20.60
2018-06-01T22:50:44.455Z,20.70
2018-06-01T22:53:11.930Z,20.60
2018-06-01T22:55:40.366Z,20.40
2018-06-01T22:58:07.831Z,20.40
2018-06-01T23:00:41.137Z,20.40
2018-06-01T23:03:08.617Z,20.40
2018-06-01T23:05:36.837Z,20.40
2018-06-01T23:08:04.293Z,20.40
2018-06-01T23:10:31.769Z,20.30
2018-06-01T23:12:59.225Z,20.20
2018-06-01T23:15:27.457Z,20.20
2018-06-01T23:17:54.917Z,20.20
2018-06-01T23:20:22.393Z,20.20
2018-06-01T23:22:49.849Z,20.20
2018-06-01T23:25:17.314Z,20.10
2018-06-01T23:27:44.781Z,20.10
2018-06-01T23:30:12.242Z,20.10
2018-06-01T23:32:39.705Z,20.10
2018-06-01T23:35:07.185Z,20.20
2018-06-01T23:37:34.641Z,20.20
2018-06-01T23:40:02.105Z,20.20
2018-06-01T23:42:29.562Z,20.10
2018-06-01T23:44:57.030Z,20.10
2018-06-01T23:47:24.493Z,20.00
2018-06-01T23:49:51.970Z,20.00
2018-06-01T23:52:19.425Z,20.00
2018-06-01T23:54:46.882Z,20.00
2018-06-01T23:57:14.353Z,20.00
2018-06-01T23:59:41.823Z,20.00
